WAT55 LPHR-LPGR

Flight info

Callsign WAT55
Flight time 0h 19m
Altitude 13000
Route GC
Aircraft HDJT/L-SABDGRWY/H

Departure

Time 2026-04-22 17:18
Airport Horta Airport (LPHR)

Arrival

Time 2026-04-22 17:37
Airport Graciosa Airport (LPGR)
Time Latitude Longitude Altitude Speed Heading
2026-04-22 17:03 38.52091 -28.71664 100 ft 0 kts 267°
2026-04-22 17:08 38.52091 -28.71663 111 ft 0 kts 267°
2026-04-22 17:13 38.52091 -28.71662 111 ft 0 kts 267°
2026-04-22 17:14 38.52091 -28.71663 111 ft 1 kts 273°
2026-04-22 17:14 38.52102 -28.71659 111 ft 5 kts 89°
2026-04-22 17:15 38.52085 -28.71641 111 ft 5 kts 168°
2026-04-22 17:15 38.52024 -28.71636 105 ft 12 kts 186°
2026-04-22 17:15 38.51993 -28.71730 98 ft 13 kts 272°
2026-04-22 17:15 38.51992 -28.71857 95 ft 17 kts 269°
2026-04-22 17:16 38.51990 -28.72035 94 ft 23 kts 270°
2026-04-22 17:16 38.51990 -28.72277 84 ft 29 kts 269°
2026-04-22 17:16 38.52017 -28.72475 86 ft 17 kts 298°
2026-04-22 17:16 38.51999 -28.72552 82 ft 7 kts 137°
2026-04-22 17:17 38.51990 -28.72512 82 ft 4 kts 96°
2026-04-22 17:17 38.51989 -28.72476 83 ft 3 kts 89°
2026-04-22 17:17 38.51990 -28.72380 83 ft 38 kts 89°
2026-04-22 17:17 38.51996 -28.71652 101 ft 124 kts 92°
2026-04-22 17:18 38.52030 -28.70290 331 ft 170 kts 83°
2026-04-22 17:18 38.52313 -28.68869 1144 ft 168 kts 60°
2026-04-22 17:18 38.52849 -28.67373 1744 ft 205 kts 57°
2026-04-22 17:18 38.53540 -28.65640 2525 ft 230 kts 53°
2026-04-22 17:19 38.55422 -28.62026 4502 ft 258 kts 47°
2026-04-22 17:19 38.57513 -28.58448 7199 ft 246 kts 42°
2026-04-22 17:20 38.59949 -28.55151 9465 ft 241 kts 32°
2026-04-22 17:20 38.62604 -28.52309 11350 ft 263 kts 40°
2026-04-22 17:21 38.63718 -28.50421 12289 ft 274 kts 51°
2026-04-22 17:21 38.66061 -28.46134 12651 ft 316 kts 47°
2026-04-22 17:22 38.68651 -28.41686 12658 ft 320 kts 49°
2026-04-22 17:22 38.70011 -28.39301 12657 ft 342 kts 49°
2026-04-22 17:22 38.72878 -28.34292 12652 ft 351 kts 49°
2026-04-22 17:23 38.74319 -28.31762 12649 ft 351 kts 49°
2026-04-22 17:23 38.77208 -28.26713 12648 ft 352 kts 49°
2026-04-22 17:23 38.78649 -28.24178 12642 ft 352 kts 49°
2026-04-22 17:24 38.80101 -28.21641 12353 ft 349 kts 49°
2026-04-22 17:24 38.81456 -28.19234 11916 ft 326 kts 49°
2026-04-22 17:24 38.82753 -28.16928 11501 ft 314 kts 48°
2026-04-22 17:24 38.84044 -28.14693 11094 ft 310 kts 47°
2026-04-22 17:25 38.85317 -28.12466 10690 ft 309 kts 48°
2026-04-22 17:25 38.86568 -28.10240 10289 ft 307 kts 48°
2026-04-22 17:25 38.87819 -28.08035 9881 ft 305 kts 47°
2026-04-22 17:25 38.89070 -28.05840 9469 ft 303 kts 47°
2026-04-22 17:26 38.90307 -28.03660 9046 ft 300 kts 48°
2026-04-22 17:26 38.91526 -28.01501 8649 ft 298 kts 48°
2026-04-22 17:26 38.92733 -27.99357 8256 ft 295 kts 48°
2026-04-22 17:26 38.93936 -27.97237 7868 ft 292 kts 47°
2026-04-22 17:27 38.95127 -27.95132 7479 ft 287 kts 48°
2026-04-22 17:27 38.96247 -27.93119 7104 ft 268 kts 48°
2026-04-22 17:27 38.97311 -27.91238 6761 ft 255 kts 47°
2026-04-22 17:27 38.98344 -27.89418 6433 ft 246 kts 47°
2026-04-22 17:28 38.99320 -27.87676 6112 ft 235 kts 47°
2026-04-22 17:28 39.00258 -27.86012 5796 ft 225 kts 46°
2026-04-22 17:28 39.01159 -27.84410 5501 ft 217 kts 46°
2026-04-22 17:28 39.02026 -27.82870 5246 ft 209 kts 46°
2026-04-22 17:29 39.02854 -27.81383 5002 ft 201 kts 45°
2026-04-22 17:29 39.03655 -27.79976 4778 ft 193 kts 41°
2026-04-22 17:29 39.04611 -27.78891 4560 ft 177 kts 20°
2026-04-22 17:29 39.05701 -27.78265 4328 ft 167 kts
2026-04-22 17:30 39.06813 -27.78068 4115 ft 157 kts 349°
2026-04-22 17:30 39.07864 -27.78244 3909 ft 149 kts 337°
2026-04-22 17:30 39.08864 -27.78536 3706 ft 146 kts 338°
2026-04-22 17:30 39.09855 -27.78818 3512 ft 144 kts 334°
2026-04-22 17:31 39.10743 -27.79347 3325 ft 139 kts 320°
2026-04-22 17:31 39.11477 -27.80124 3141 ft 135 kts 308°
2026-04-22 17:31 39.12023 -27.81087 2963 ft 132 kts 298°
2026-04-22 17:31 39.12362 -27.82172 2859 ft 128 kts 287°
2026-04-22 17:32 39.12493 -27.83291 2871 ft 125 kts 277°
2026-04-22 17:32 39.12425 -27.84387 2808 ft 127 kts 267°
2026-04-22 17:32 39.12225 -27.85493 2640 ft 126 kts 266°
2026-04-22 17:32 39.12039 -27.86597 2474 ft 126 kts 265°
2026-04-22 17:33 39.11911 -27.87345 2358 ft 127 kts 265°
2026-04-22 17:33 39.11659 -27.88825 2135 ft 128 kts 264°
2026-04-22 17:33 39.11466 -27.89943 1967 ft 127 kts 263°
2026-04-22 17:33 39.11277 -27.91047 1900 ft 122 kts 264°
2026-04-22 17:34 39.11095 -27.92034 1742 ft 111 kts 263°
2026-04-22 17:34 39.10905 -27.92991 1592 ft 107 kts 263°
2026-04-22 17:34 39.10714 -27.93905 1446 ft 105 kts 265°
2026-04-22 17:34 39.10561 -27.94816 1266 ft 105 kts 266°
2026-04-22 17:35 39.10434 -27.95733 1138 ft 105 kts 266°
2026-04-22 17:35 39.10280 -27.96644 1004 ft 103 kts 264°
2026-04-22 17:35 39.10125 -27.97568 824 ft 107 kts 264°
2026-04-22 17:35 39.09953 -27.98500 704 ft 106 kts 263°
2026-04-22 17:36 39.09794 -27.99378 623 ft 95 kts 265°
2026-04-22 17:36 39.09664 -28.00211 452 ft 96 kts 266°
2026-04-22 17:36 39.09532 -28.01038 317 ft 93 kts 266°
2026-04-22 17:36 39.09407 -28.01848 191 ft 91 kts 264°
2026-04-22 17:37 39.09280 -28.02612 94 ft 82 kts 260°
2026-04-22 17:37 39.09180 -28.03208 87 ft 54 kts 257°
2026-04-22 17:37 39.09116 -28.03560 88 ft 21 kts 256°
2026-04-22 17:37 39.09113 -28.03609 89 ft 4 kts 75°
2026-04-22 17:38 39.09121 -28.03537 87 ft 11 kts 79°
2026-04-22 17:38 39.09144 -28.03409 87 ft 18 kts 77°
2026-04-22 17:38 39.09174 -28.03234 85 ft 20 kts 78°
2026-04-22 17:38 39.09202 -28.03071 86 ft 18 kts 78°
2026-04-22 17:39 39.09230 -28.02911 85 ft 17 kts 79°
2026-04-22 17:39 39.09173 -28.02836 83 ft 12 kts 154°
2026-04-22 17:39 39.09125 -28.02808 87 ft 1 kts 98°
2026-04-22 17:40 39.09130 -28.02790 83 ft 1 kts
2026-04-22 17:40 39.09137 -28.02795 83 ft 2 kts 332°
2026-04-22 17:40 39.09140 -28.02796 83 ft 0 kts 341°